sensor_id;sensor_type;location;lat;lon;timestamp;pressure;altitude;pressure_sealevel;temperature;humidity
45621;BME280;31345;51.522;10.702;2023-09-30T00:00:22;99776.53;;;13.91;100.00
45621;BME280;31345;51.522;10.702;2023-09-30T00:02:55;99776.53;;;13.91;100.00
45621;BME280;31345;51.522;10.702;2023-09-30T00:05:32;99775.25;;;13.70;100.00
45621;BME280;31345;51.522;10.702;2023-09-30T00:08:05;99784.00;;;13.71;100.00
45621;BME280;31345;51.522;10.702;2023-09-30T00:10:38;99782.72;;;13.63;100.00
45621;BME280;31345;51.522;10.702;2023-09-30T00:13:10;99797.00;;;13.59;100.00
45621;BME280;31345;51.522;10.702;2023-09-30T00:15:43;99797.00;;;13.59;100.00
45621;BME280;31345;51.522;10.702;2023-09-30T00:18:16;99807.13;;;13.66;100.00
45621;BME280;31345;51.522;10.702;2023-09-30T00:20:50;99807.13;;;13.66;100.00
45621;BME280;31345;51.522;10.702;2023-09-30T00:23:17;99813.81;;;13.57;100.00
45621;BME280;31345;51.522;10.702;2023-09-30T00:25:52;99814.91;;;13.40;100.00
45621;BME280;31345;51.522;10.702;2023-09-30T00:28:25;99829.13;;;13.09;100.00
45621;BME280;31345;51.522;10.702;2023-09-30T00:30:52;99833.34;;;12.97;100.00
45621;BME280;31345;51.522;10.702;2023-09-30T00:33:26;99827.16;;;12.98;100.00
45621;BME280;31345;51.522;10.702;2023-09-30T00:36:05;99821.63;;;13.03;100.00
45621;BME280;31345;51.522;10.702;2023-09-30T00:38:33;99825.03;;;12.91;100.00
45621;BME280;31345;51.522;10.702;2023-09-30T00:41:01;99841.84;;;12.73;100.00
45621;BME280;31345;51.522;10.702;2023-09-30T00:43:33;99853.19;;;12.59;100.00
45621;BME280;31345;51.522;10.702;2023-09-30T00:46:18;99854.16;;;12.58;100.00
45621;BME280;31345;51.522;10.702;2023-09-30T00:48:58;99854.25;;;12.42;100.00
45621;BME280;31345;51.522;10.702;2023-09-30T00:51:32;99852.75;;;12.53;100.00
45621;BME280;31345;51.522;10.702;2023-09-30T00:54:05;99856.31;;;12.37;100.00
45621;BME280;31345;51.522;10.702;2023-09-30T00:56:37;99849.19;;;12.54;100.00
45621;BME280;31345;51.522;10.702;2023-09-30T00:59:12;99861.72;;;12.63;100.00
45621;BME280;31345;51.522;10.702;2023-09-30T01:01:45;99870.53;;;12.77;100.00
45621;BME280;31345;51.522;10.702;2023-09-30T01:04:18;99864.59;;;12.73;100.00
45621;BME280;31345;51.522;10.702;2023-09-30T01:06:53;99869.78;;;12.45;100.00
45621;BME280;31345;51.522;10.702;2023-09-30T01:09:23;99862.84;;;12.59;100.00
45621;BME280;31345;51.522;10.702;2023-09-30T01:11:52;99865.56;;;12.28;100.00
45621;BME280;31345;51.522;10.702;2023-09-30T01:14:27;99866.59;;;12.26;100.00
45621;BME280;31345;51.522;10.702;2023-09-30T01:16:55;99860.50;;;12.25;100.00
45621;BME280;31345;51.522;10.702;2023-09-30T01:19:24;99856.69;;;12.16;100.00
45621;BME280;31345;51.522;10.702;2023-09-30T01:21:59;99865.38;;;12.17;100.00
45621;BME280;31345;51.522;10.702;2023-09-30T01:24:38;99863.31;;;11.77;100.00
45621;BME280;31345;51.522;10.702;2023-09-30T01:27:07;99871.09;;;12.09;100.00
45621;BME280;31345;51.522;10.702;2023-09-30T01:29:35;99883.16;;;11.81;100.00
45621;BME280;31345;51.522;10.702;2023-09-30T01:32:09;99879.59;;;11.98;100.00
45621;BME280;31345;51.522;10.702;2023-09-30T01:34:37;99883.88;;;11.68;100.00
45621;BME280;31345;51.522;10.702;2023-09-30T01:37:11;99885.66;;;11.68;100.00
45621;BME280;31345;51.522;10.702;2023-09-30T01:39:44;99888.19;;;12.00;100.00
45621;BME280;31345;51.522;10.702;2023-09-30T01:42:17;99896.13;;;11.99;100.00
45621;BME280;31345;51.522;10.702;2023-09-30T01:44:50;99897.16;;;11.65;100.00
45621;BME280;31345;51.522;10.702;2023-09-30T01:47:17;99894.13;;;12.04;100.00
45621;BME280;31345;51.522;10.702;2023-09-30T01:49:50;99901.59;;;11.95;100.00
45621;BME280;31345;51.522;10.702;2023-09-30T01:52:19;99903.19;;;11.82;100.00
45621;BME280;31345;51.522;10.702;2023-09-30T01:54:46;99902.31;;;11.51;100.00
45621;BME280;31345;51.522;10.702;2023-09-30T01:57:19;99908.28;;;11.22;100.00
45621;BME280;31345;51.522;10.702;2023-09-30T01:59:47;99918.66;;;11.24;100.00
45621;BME280;31345;51.522;10.702;2023-09-30T02:02:19;99922.03;;;11.42;100.00
45621;BME280;31345;51.522;10.702;2023-09-30T02:04:52;99919.09;;;11.32;100.00
45621;BME280;31345;51.522;10.702;2023-09-30T02:07:22;99926.09;;;11.48;100.00
45621;BME280;31345;51.522;10.702;2023-09-30T02:09:49;99914.75;;;11.31;100.00
45621;BME280;31345;51.522;10.702;2023-09-30T02:12:22;99916.72;;;11.11;100.00
45621;BME280;31345;51.522;10.702;2023-09-30T02:14:50;99913.69;;;11.19;100.00
45621;BME280;31345;51.522;10.702;2023-09-30T02:17:17;99918.72;;;11.06;100.00
45621;BME280;31345;51.522;10.702;2023-09-30T02:19:50;99922.38;;;11.03;100.00
45621;BME280;31345;51.522;10.702;2023-09-30T02:22:19;99916.63;;;11.13;100.00
45621;BME280;31345;51.522;10.702;2023-09-30T02:24:48;99921.94;;;11.27;100.00
45621;BME280;31345;51.522;10.702;2023-09-30T02:27:17;99906.41;;;11.24;100.00
45621;BME280;31345;51.522;10.702;2023-09-30T02:29:49;99916.63;;;11.13;100.00
45621;BME280;31345;51.522;10.702;2023-09-30T02:32:17;99919.66;;;11.37;100.00
45621;BME280;31345;51.522;10.702;2023-09-30T02:34:50;99925.16;;;11.16;100.00
45621;BME280;31345;51.522;10.702;2023-09-30T02:37:17;99928.03;;;11.28;100.00
45621;BME280;31345;51.522;10.702;2023-09-30T02:39:51;99930.41;;;11.16;100.00
45621;BME280;31345;51.522;10.702;2023-09-30T02:42:35;99922.59;;;11.31;100.00
45621;BME280;31345;51.522;10.702;2023-09-30T02:45:09;99934.06;;;10.80;100.00
45621;BME280;31345;51.522;10.702;2023-09-30T02:47:42;99928.84;;;10.80;100.00
45621;BME280;31345;51.522;10.702;2023-09-30T02:50:10;99929.31;;;10.71;100.00
45621;BME280;31345;51.522;10.702;2023-09-30T02:52:43;99942.53;;;10.85;100.00
45621;BME280;31345;51.522;10.702;2023-09-30T02:55:12;99933.53;;;11.23;100.00
45621;BME280;31345;51.522;10.702;2023-09-30T02:57:40;99933.19;;;11.13;100.00
45621;BME280;31345;51.522;10.702;2023-09-30T03:00:09;99923.88;;;11.08;100.00
45621;BME280;31345;51.522;10.702;2023-09-30T03:02:55;99928.13;;;11.26;100.00
45621;BME280;31345;51.522;10.702;2023-09-30T03:05:22;99928.69;;;11.48;100.00
45621;BME280;31345;51.522;10.702;2023-09-30T03:07:55;99931.00;;;11.05;100.00
45621;BME280;31345;51.522;10.702;2023-09-30T03:10:29;99939.53;;;10.75;100.00
45621;BME280;31345;51.522;10.702;2023-09-30T03:13:02;99947.75;;;10.85;100.00
45621;BME280;31345;51.522;10.702;2023-09-30T03:15:35;99938.50;;;10.96;100.00
45621;BME280;31345;51.522;10.702;2023-09-30T03:18:08;99951.94;;;11.05;100.00
45621;BME280;31345;51.522;10.702;2023-09-30T03:20:40;99933.59;;;11.22;100.00
45621;BME280;31345;51.522;10.702;2023-09-30T03:23:14;99945.50;;;11.11;100.00
45621;BME280;31345;51.522;10.702;2023-09-30T03:25:48;99943.41;;;11.18;100.00
45621;BME280;31345;51.522;10.702;2023-09-30T03:28:21;99941.53;;;11.04;100.00
45621;BME280;31345;51.522;10.702;2023-09-30T03:30:53;99936.78;;;11.27;100.00
45621;BME280;31345;51.522;10.702;2023-09-30T03:33:27;99942.72;;;11.14;100.00
45621;BME280;31345;51.522;10.702;2023-09-30T03:36:00;99937.47;;;10.98;100.00
45621;BME280;31345;51.522;10.702;2023-09-30T03:38:34;99939.25;;;10.98;100.00
45621;BME280;31345;51.522;10.702;2023-09-30T03:41:08;99937.53;;;10.81;100.00
45621;BME280;31345;51.522;10.702;2023-09-30T03:43:39;99943.72;;;11.12;100.00
45621;BME280;31345;51.522;10.702;2023-09-30T03:46:07;99941.88;;;11.30;100.00
45621;BME280;31345;51.522;10.702;2023-09-30T03:48:40;99940.34;;;11.26;100.00
45621;BME280;31345;51.522;10.702;2023-09-30T03:51:14;99937.66;;;11.11;100.00
45621;BME280;31345;51.522;10.702;2023-09-30T03:53:42;99943.22;;;11.21;100.00
45621;BME280;31345;51.522;10.702;2023-09-30T03:56:17;99949.66;;;11.15;100.00
45621;BME280;31345;51.522;10.702;2023-09-30T03:58:50;99958.50;;;11.13;100.00
45621;BME280;31345;51.522;10.702;2023-09-30T04:01:24;99962.81;;;11.14;100.00
45621;BME280;31345;51.522;10.702;2023-09-30T04:03:58;99959.03;;;11.20;100.00
45621;BME280;31345;51.522;10.702;2023-09-30T04:06:31;99955.13;;;11.27;100.00
45621;BME280;31345;51.522;10.702;2023-09-30T04:09:04;99958.28;;;11.34;100.00
45621;BME280;31345;51.522;10.702;2023-09-30T04:11:42;99954.13;;;11.13;100.00
45621;BME280;31345;51.522;10.702;2023-09-30T04:14:14;99953.03;;;11.01;100.00
45621;BME280;31345;51.522;10.702;2023-09-30T04:16:43;99952.75;;;10.90;100.00
45621;BME280;31345;51.522;10.702;2023-09-30T04:19:16;99971.72;;;10.77;100.00
45621;BME280;31345;51.522;10.702;2023-09-30T04:21:48;99959.00;;;10.87;100.00
45621;BME280;31345;51.522;10.702;2023-09-30T04:24:21;99967.94;;;10.83;100.00
45621;BME280;31345;51.522;10.702;2023-09-30T04:26:55;99974.41;;;10.92;100.00
45621;BME280;31345;51.522;10.702;2023-09-30T04:29:30;99981.09;;;10.98;100.00
45621;BME280;31345;51.522;10.702;2023-09-30T04:32:03;99979.25;;;11.00;100.00
45621;BME280;31345;51.522;10.702;2023-09-30T04:34:37;99986.78;;;11.06;100.00
45621;BME280;31345;51.522;10.702;2023-09-30T04:37:10;100010.91;;;10.95;100.00
45621;BME280;31345;51.522;10.702;2023-09-30T04:39:42;100011.75;;;10.96;100.00
45621;BME280;31345;51.522;10.702;2023-09-30T04:42:16;100005.78;;;11.10;100.00
45621;BME280;31345;51.522;10.702;2023-09-30T04:44:49;99995.31;;;11.10;100.00
45621;BME280;31345;51.522;10.702;2023-09-30T04:47:21;99990.91;;;10.94;100.00
45621;BME280;31345;51.522;10.702;2023-09-30T04:49:50;99985.41;;;10.99;100.00
45621;BME280;31345;51.522;10.702;2023-09-30T04:52:23;99969.97;;;10.94;100.00
45621;BME280;31345;51.522;10.702;2023-09-30T04:54:53;99987.56;;;11.08;100.00
45621;BME280;31345;51.522;10.702;2023-09-30T04:57:27;99995.88;;;10.99;100.00
45621;BME280;31345;51.522;10.702;2023-09-30T05:00:00;100003.47;;;10.87;100.00
45621;BME280;31345;51.522;10.702;2023-09-30T05:02:33;100014.16;;;10.83;100.00
45621;BME280;31345;51.522;10.702;2023-09-30T05:05:00;100030.22;;;10.75;100.00
45621;BME280;31345;51.522;10.702;2023-09-30T05:07:34;100029.53;;;10.89;100.00
45621;BME280;31345;51.522;10.702;2023-09-30T05:10:02;100032.13;;;10.89;100.00
45621;BME280;31345;51.522;10.702;2023-09-30T05:12:38;100044.09;;;10.77;100.00
45621;BME280;31345;51.522;10.702;2023-09-30T05:15:12;100038.72;;;10.80;100.00
45621;BME280;31345;51.522;10.702;2023-09-30T05:17:47;100028.81;;;10.69;100.00
45621;BME280;31345;51.522;10.702;2023-09-30T05:20:20;100031.44;;;10.69;100.00
45621;BME280;31345;51.522;10.702;2023-09-30T05:22:54;100029.47;;;10.73;100.00
45621;BME280;31345;51.522;10.702;2023-09-30T05:25:21;100027.25;;;10.65;100.00
45621;BME280;31345;51.522;10.702;2023-09-30T05:27:59;100031.94;;;10.76;100.00
45621;BME280;31345;51.522;10.702;2023-09-30T05:30:31;100031.31;;;10.88;100.00
45621;BME280;31345;51.522;10.702;2023-09-30T05:33:04;100033.59;;;10.95;100.00
45621;BME280;31345;51.522;10.702;2023-09-30T05:35:37;100029.88;;;10.99;100.00
45621;BME280;31345;51.522;10.702;2023-09-30T05:38:07;100036.84;;;10.82;100.00
45621;BME280;31345;51.522;10.702;2023-09-30T05:40:39;100042.47;;;10.57;100.00
45621;BME280;31345;51.522;10.702;2023-09-30T05:43:14;100030.78;;;10.64;100.00
45621;BME280;31345;51.522;10.702;2023-09-30T05:45:47;100023.16;;;10.77;100.00
45621;BME280;31345;51.522;10.702;2023-09-30T05:48:25;100029.34;;;10.76;100.00
45621;BME280;31345;51.522;10.702;2023-09-30T05:50:58;100029.28;;;10.94;100.00
45621;BME280;31345;51.522;10.702;2023-09-30T05:53:31;100024.63;;;10.83;100.00
45621;BME280;31345;51.522;10.702;2023-09-30T05:55:59;100038.00;;;10.76;100.00
45621;BME280;31345;51.522;10.702;2023-09-30T05:58:33;100036.47;;;10.72;100.00
45621;BME280;31345;51.522;10.702;2023-09-30T06:01:07;100046.94;;;10.72;100.00
45621;BME280;31345;51.522;10.702;2023-09-30T06:03:42;100052.94;;;10.57;100.00
45621;BME280;31345;51.522;10.702;2023-09-30T06:06:17;100063.78;;;10.66;100.00
45621;BME280;31345;51.522;10.702;2023-09-30T06:08:50;100064.16;;;10.76;100.00
45621;BME280;31345;51.522;10.702;2023-09-30T06:11:18;100067.59;;;10.95;100.00
45621;BME280;31345;51.522;10.702;2023-09-30T06:13:51;100056.97;;;10.98;100.00
45621;BME280;31345;51.522;10.702;2023-09-30T06:16:20;100053.88;;;11.07;100.00
45621;BME280;31345;51.522;10.702;2023-09-30T06:18:52;100052.47;;;11.17;100.00
45621;BME280;31345;51.522;10.702;2023-09-30T06:21:25;100066.16;;;11.23;100.00
45621;BME280;31345;51.522;10.702;2023-09-30T06:23:55;100056.81;;;11.35;100.00
45621;BME280;31345;51.522;10.702;2023-09-30T06:26:28;100058.69;;;11.49;100.00
45621;BME280;31345;51.522;10.702;2023-09-30T06:29:02;100060.47;;;11.48;100.00
45621;BME280;31345;51.522;10.702;2023-09-30T06:31:35;100050.25;;;11.43;100.00
45621;BME280;31345;51.522;10.702;2023-09-30T06:34:07;100048.06;;;11.52;100.00
45621;BME280;31345;51.522;10.702;2023-09-30T06:36:42;100050.66;;;11.68;100.00
45621;BME280;31345;51.522;10.702;2023-09-30T06:39:10;100048.75;;;11.72;100.00
45621;BME280;31345;51.522;10.702;2023-09-30T06:41:43;100068.53;;;11.77;100.00
45621;BME280;31345;51.522;10.702;2023-09-30T06:44:14;100063.50;;;11.89;100.00
45621;BME280;31345;51.522;10.702;2023-09-30T06:46:42;100073.06;;;11.90;100.00
45621;BME280;31345;51.522;10.702;2023-09-30T06:49:15;100091.41;;;11.90;100.00
45621;BME280;31345;51.522;10.702;2023-09-30T06:51:57;100094.50;;;11.98;100.00
45621;BME280;31345;51.522;10.702;2023-09-30T06:54:30;100098.19;;;12.10;100.00
45621;BME280;31345;51.522;10.702;2023-09-30T06:57:03;100099.53;;;12.17;100.00
45621;BME280;31345;51.522;10.702;2023-09-30T06:59:37;100102.56;;;12.26;100.00
45621;BME280;31345;51.522;10.702;2023-09-30T07:02:05;100109.81;;;12.37;100.00
45621;BME280;31345;51.522;10.702;2023-09-30T07:04:32;100116.81;;;12.52;100.00
45621;BME280;31345;51.522;10.702;2023-09-30T07:07:05;100110.19;;;12.61;100.00
45621;BME280;31345;51.522;10.702;2023-09-30T07:09:37;100111.25;;;12.73;100.00
45621;BME280;31345;51.522;10.702;2023-09-30T07:12:10;100119.72;;;12.78;100.00
45621;BME280;31345;51.522;10.702;2023-09-30T07:14:44;100132.38;;;12.86;100.00
45621;BME280;31345;51.522;10.702;2023-09-30T07:17:12;100127.59;;;12.93;100.00
45621;BME280;31345;51.522;10.702;2023-09-30T07:19:40;100114.88;;;13.01;100.00
45621;BME280;31345;51.522;10.702;2023-09-30T07:22:13;100120.72;;;13.06;100.00
45621;BME280;31345;51.522;10.702;2023-09-30T07:24:45;100126.59;;;13.10;100.00
45621;BME280;31345;51.522;10.702;2023-09-30T07:27:18;100124.75;;;13.12;100.00
45621;BME280;31345;51.522;10.702;2023-09-30T07:29:52;100121.81;;;13.17;100.00
45621;BME280;31345;51.522;10.702;2023-09-30T07:32:25;100125.59;;;13.27;100.00
45621;BME280;31345;51.522;10.702;2023-09-30T07:34:52;100138.47;;;13.32;100.00
45621;BME280;31345;51.522;10.702;2023-09-30T07:37:23;100127.09;;;13.31;100.00
45621;BME280;31345;51.522;10.702;2023-09-30T07:39:56;100128.97;;;13.29;100.00
45621;BME280;31345;51.522;10.702;2023-09-30T07:42:24;100131.41;;;13.32;100.00
45621;BME280;31345;51.522;10.702;2023-09-30T07:44:53;100140.69;;;13.38;100.00
45621;BME280;31345;51.522;10.702;2023-09-30T07:47:20;100138.25;;;13.35;100.00
45621;BME280;31345;51.522;10.702;2023-09-30T07:49:53;100141.06;;;13.46;100.00
45621;BME280;31345;51.522;10.702;2023-09-30T07:52:25;100137.53;;;13.62;100.00
45621;BME280;31345;51.522;10.702;2023-09-30T07:54:53;100145.31;;;13.78;100.00
45621;BME280;31345;51.522;10.702;2023-09-30T07:57:26;100152.53;;;13.89;100.00
45621;BME280;31345;51.522;10.702;2023-09-30T08:00:00;100154.94;;;14.07;100.00
45621;BME280;31345;51.522;10.702;2023-09-30T08:02:40;100155.06;;;14.33;100.00
45621;BME280;31345;51.522;10.702;2023-09-30T08:05:13;100142.97;;;14.43;100.00
45621;BME280;31345;51.522;10.702;2023-09-30T08:07:41;100148.22;;;14.71;100.00
45621;BME280;31345;51.522;10.702;2023-09-30T08:10:09;100153.72;;;14.94;100.00
45621;BME280;31345;51.522;10.702;2023-09-30T08:12:44;100156.97;;;15.12;100.00
45621;BME280;31345;51.522;10.702;2023-09-30T08:15:21;100155.47;;;15.08;100.00
45621;BME280;31345;51.522;10.702;2023-09-30T08:17:48;100158.66;;;15.13;100.00
45621;BME280;31345;51.522;10.702;2023-09-30T08:20:21;100157.59;;;15.28;100.00
45621;BME280;31345;51.522;10.702;2023-09-30T08:22:49;100156.84;;;15.26;100.00
45621;BME280;31345;51.522;10.702;2023-09-30T08:25:21;100152.00;;;15.46;100.00
45621;BME280;31345;51.522;10.702;2023-09-30T08:27:54;100147.47;;;15.35;100.00
45621;BME280;31345;51.522;10.702;2023-09-30T08:30:28;100153.06;;;15.30;100.00
45621;BME280;31345;51.522;10.702;2023-09-30T08:33:01;100154.13;;;15.28;100.00
45621;BME280;31345;51.522;10.702;2023-09-30T08:35:37;100155.06;;;15.53;100.00
45621;BME280;31345;51.522;10.702;2023-09-30T08:38:10;100155.69;;;15.56;100.00
45621;BME280;31345;51.522;10.702;2023-09-30T08:40:44;100152.50;;;15.51;100.00
45621;BME280;31345;51.522;10.702;2023-09-30T08:43:14;100153.59;;;15.23;100.00
45621;BME280;31345;51.522;10.702;2023-09-30T08:45:53;100152.53;;;15.25;100.00
45621;BME280;31345;51.522;10.702;2023-09-30T08:48:23;100147.47;;;15.22;100.00
45621;BME280;31345;51.522;10.702;2023-09-30T08:50:53;100150.31;;;15.19;100.00
45621;BME280;31345;51.522;10.702;2023-09-30T08:53:28;100144.31;;;15.43;100.00
45621;BME280;31345;51.522;10.702;2023-09-30T08:55:57;100135.31;;;15.72;100.00
45621;BME280;31345;51.522;10.702;2023-09-30T08:58:32;100135.59;;;15.93;98.56
45621;BME280;31345;51.522;10.702;2023-09-30T09:01:01;100144.97;;;15.97;97.81
45621;BME280;31345;51.522;10.702;2023-09-30T09:03:34;100149.91;;;16.26;99.14
45621;BME280;31345;51.522;10.702;2023-09-30T09:06:07;100148.25;;;16.25;97.33
45621;BME280;31345;51.522;10.702;2023-09-30T09:08:40;100145.34;;;16.41;97.09
45621;BME280;31345;51.522;10.702;2023-09-30T09:11:14;100144.19;;;16.57;96.24
45621;BME280;31345;51.522;10.702;2023-09-30T09:13:48;100147.91;;;16.79;94.59
45621;BME280;31345;51.522;10.702;2023-09-30T09:16:24;100148.75;;;16.91;91.28
45621;BME280;31345;51.522;10.702;2023-09-30T09:18:52;100146.81;;;16.81;92.70
45621;BME280;31345;51.522;10.702;2023-09-30T09:21:24;100142.41;;;16.93;87.75
45621;BME280;31345;51.522;10.702;2023-09-30T09:23:54;100155.06;;;16.77;87.05
45621;BME280;31345;51.522;10.702;2023-09-30T09:26:28;100158.38;;;17.03;90.37
45621;BME280;31345;51.522;10.702;2023-09-30T09:28:57;100161.44;;;17.10;89.14
45621;BME280;31345;51.522;10.702;2023-09-30T09:31:32;100163.34;;;17.08;86.12
45621;BME280;31345;51.522;10.702;2023-09-30T09:34:14;100168.84;;;17.05;86.25
45621;BME280;31345;51.522;10.702;2023-09-30T09:36:47;100162.03;;;17.14;85.06
45621;BME280;31345;51.522;10.702;2023-09-30T09:39:14;100170.34;;;17.43;88.29
45621;BME280;31345;51.522;10.702;2023-09-30T09:41:51;100162.78;;;17.39;85.79
45621;BME280;31345;51.522;10.702;2023-09-30T09:44:24;100163.63;;;17.39;84.07
45621;BME280;31345;51.522;10.702;2023-09-30T09:47:00;100164.81;;;17.35;83.44
45621;BME280;31345;51.522;10.702;2023-09-30T09:49:32;100169.38;;;17.44;85.78
45621;BME280;31345;51.522;10.702;2023-09-30T09:52:00;100159.94;;;17.65;83.69
45621;BME280;31345;51.522;10.702;2023-09-30T09:54:34;100158.97;;;17.54;83.23
45621;BME280;31345;51.522;10.702;2023-09-30T09:57:09;100154.88;;;17.61;84.12
45621;BME280;31345;51.522;10.702;2023-09-30T09:59:38;100154.25;;;17.58;81.45
45621;BME280;31345;51.522;10.702;2023-09-30T10:02:10;100150.44;;;17.51;82.82
45621;BME280;31345;51.522;10.702;2023-09-30T10:04:41;100156.69;;;17.61;80.41
45621;BME280;31345;51.522;10.702;2023-09-30T10:07:20;100155.13;;;17.70;79.10
45621;BME280;31345;51.522;10.702;2023-09-30T10:09:50;100147.66;;;17.86;80.62
45621;BME280;31345;51.522;10.702;2023-09-30T10:12:19;100150.41;;;17.96;79.74
45621;BME280;31345;51.522;10.702;2023-09-30T10:14:52;100140.22;;;18.24;80.87
45621;BME280;31345;51.522;10.702;2023-09-30T10:17:57;100141.41;;;18.32;77.93
45621;BME280;31345;51.522;10.702;2023-09-30T10:20:30;100144.53;;;18.25;77.98
45621;BME280;31345;51.522;10.702;2023-09-30T10:23:22;100145.03;;;18.31;76.94
45621;BME280;31345;51.522;10.702;2023-09-30T10:25:52;100142.50;;;18.29;73.58
45621;BME280;31345;51.522;10.702;2023-09-30T10:28:35;100146.94;;;18.29;73.60
45621;BME280;31345;51.522;10.702;2023-09-30T10:31:11;100151.75;;;18.35;76.65
45621;BME280;31345;51.522;10.702;2023-09-30T10:34:19;100145.19;;;18.50;74.56
45621;BME280;31345;51.522;10.702;2023-09-30T10:36:52;100123.28;;;18.60;74.17
45621;BME280;31345;51.522;10.702;2023-09-30T10:39:53;100135.84;;;18.46;72.62
45621;BME280;31345;51.522;10.702;2023-09-30T10:42:45;100136.84;;;18.67;75.96
45621;BME280;31345;51.522;10.702;2023-09-30T10:45:51;100138.34;;;18.81;74.74
45621;BME280;31345;51.522;10.702;2023-09-30T10:48:37;100123.47;;;18.89;71.73
45621;BME280;31345;51.522;10.702;2023-09-30T10:51:14;100126.00;;;18.70;67.16
45621;BME280;31345;51.522;10.702;2023-09-30T10:53:48;100129.41;;;18.82;70.72
45621;BME280;31345;51.522;10.702;2023-09-30T10:56:23;100122.13;;;18.95;67.91
45621;BME280;31345;51.522;10.702;2023-09-30T10:58:52;100124.59;;;18.87;68.34
45621;BME280;31345;51.522;10.702;2023-09-30T11:01:35;100118.69;;;18.83;68.22
45621;BME280;31345;51.522;10.702;2023-09-30T11:04:04;100119.91;;;19.00;69.21
45621;BME280;31345;51.522;10.702;2023-09-30T11:06:41;100118.31;;;18.88;68.75
45621;BME280;31345;51.522;10.702;2023-09-30T11:09:15;100121.88;;;18.77;69.25
45621;BME280;31345;51.522;10.702;2023-09-30T11:11:45;100124.91;;;18.94;69.54
45621;BME280;31345;51.522;10.702;2023-09-30T11:14:20;100125.41;;;19.09;68.27
45621;BME280;31345;51.522;10.702;2023-09-30T11:16:54;100132.13;;;19.13;71.79
45621;BME280;31345;51.522;10.702;2023-09-30T11:19:22;100136.28;;;19.37;69.80
45621;BME280;31345;51.522;10.702;2023-09-30T11:21:53;100143.63;;;19.23;69.33
45621;BME280;31345;51.522;10.702;2023-09-30T11:24:26;100130.94;;;19.27;66.17
45621;BME280;31345;51.522;10.702;2023-09-30T11:27:00;100114.09;;;19.38;67.23
45621;BME280;31345;51.522;10.702;2023-09-30T11:29:33;100112.28;;;19.38;66.25
45621;BME280;31345;51.522;10.702;2023-09-30T11:32:05;100108.69;;;19.08;64.71
45621;BME280;31345;51.522;10.702;2023-09-30T11:34:34;100107.19;;;19.25;66.73
45621;BME280;31345;51.522;10.702;2023-09-30T11:37:04;100114.34;;;19.25;65.90
45621;BME280;31345;51.522;10.702;2023-09-30T11:39:37;100109.63;;;19.38;64.77
45621;BME280;31345;51.522;10.702;2023-09-30T11:42:14;100110.91;;;19.75;65.06
45621;BME280;31345;51.522;10.702;2023-09-30T11:44:47;100100.81;;;19.69;63.45
45621;BME280;31345;51.522;10.702;2023-09-30T11:47:28;100097.03;;;19.62;60.64
45621;BME280;31345;51.522;10.702;2023-09-30T11:49:57;100092.25;;;19.55;62.87
45621;BME280;31345;51.522;10.702;2023-09-30T11:52:31;100096.16;;;19.20;61.88
45621;BME280;31345;51.522;10.702;2023-09-30T11:54:58;100096.22;;;19.30;63.57
45621;BME280;31345;51.522;10.702;2023-09-30T11:57:27;100094.72;;;19.37;62.44
45621;BME280;31345;51.522;10.702;2023-09-30T11:59:59;100091.59;;;19.22;61.54
45621;BME280;31345;51.522;10.702;2023-09-30T12:02:27;100092.78;;;19.18;65.47
45621;BME280;31345;51.522;10.702;2023-09-30T12:05:01;100089.63;;;19.24;65.02
45621;BME280;31345;51.522;10.702;2023-09-30T12:07:35;100089.22;;;18.98;62.24
45621;BME280;31345;51.522;10.702;2023-09-30T12:10:03;100087.53;;;18.97;64.33
45621;BME280;31345;51.522;10.702;2023-09-30T12:12:35;100086.38;;;18.89;65.25
45621;BME280;31345;51.522;10.702;2023-09-30T12:15:11;100084.91;;;18.97;65.28
45621;BME280;31345;51.522;10.702;2023-09-30T12:17:44;100079.97;;;18.92;64.77
45621;BME280;31345;51.522;10.702;2023-09-30T12:20:17;100072.09;;;19.02;64.57
45621;BME280;31345;51.522;10.702;2023-09-30T12:22:51;100070.53;;;18.99;64.98
45621;BME280;31345;51.522;10.702;2023-09-30T12:25:20;100066.44;;;18.85;64.25
45621;BME280;31345;51.522;10.702;2023-09-30T12:27:53;100073.91;;;18.80;65.46
45621;BME280;31345;51.522;10.702;2023-09-30T12:30:26;100073.78;;;18.82;64.47
45621;BME280;31345;51.522;10.702;2023-09-30T12:32:54;100079.66;;;18.85;66.24
45621;BME280;31345;51.522;10.702;2023-09-30T12:35:28;100068.75;;;19.10;66.49
45621;BME280;31345;51.522;10.702;2023-09-30T12:38:02;100066.56;;;19.15;63.98
45621;BME280;31345;51.522;10.702;2023-09-30T12:40:35;100074.81;;;19.22;65.25
45621;BME280;31345;51.522;10.702;2023-09-30T12:43:07;100072.94;;;19.02;64.26
45621;BME280;31345;51.522;10.702;2023-09-30T12:45:35;100075.09;;;19.19;61.25
45621;BME280;31345;51.522;10.702;2023-09-30T12:48:05;100062.56;;;19.21;58.05
45621;BME280;31345;51.522;10.702;2023-09-30T12:50:38;100054.34;;;18.93;59.09
45621;BME280;31345;51.522;10.702;2023-09-30T12:53:13;100069.94;;;18.64;61.90
45621;BME280;31345;51.522;10.702;2023-09-30T12:55:41;100067.59;;;18.71;63.34
45621;BME280;31345;51.522;10.702;2023-09-30T12:58:14;100061.19;;;18.74;60.86
45621;BME280;31345;51.522;10.702;2023-09-30T13:00:47;100078.38;;;18.58;60.27
45621;BME280;31345;51.522;10.702;2023-09-30T13:03:20;100069.41;;;18.17;63.36
45621;BME280;31345;51.522;10.702;2023-09-30T13:05:47;100077.97;;;18.09;65.91